createdAt,value
2022-10-24T00:53:10.656Z,99900.47
2022-10-24T00:58:39.989Z,99888.72
2022-10-24T02:22:41.613Z,99928.28
2022-10-24T02:27:49.603Z,99963.69
2022-10-24T03:02:36.260Z,99986.44
2022-10-24T03:07:40.575Z,99957.78
2022-10-24T08:36:51.550Z,100075.47
2022-10-24T08:42:34.538Z,100080.53
2022-10-24T08:48:07.458Z,100075.38
2022-10-24T08:53:30.163Z,100075.22
2022-10-24T08:59:03.927Z,100077.50
2022-10-24T09:04:19.458Z,100088.41
2022-10-24T09:09:33.929Z,100094.13
2022-10-24T09:14:41.484Z,100077.19
2022-10-24T09:19:52.218Z,100060.94
2022-10-24T09:25:13.028Z,100069.22
2022-10-24T09:30:28.601Z,100062.38
2022-10-24T09:36:37.316Z,100059.75
2022-10-24T09:41:39.151Z,100046.25
2022-10-24T09:47:14.618Z,100042.97
2022-10-24T09:52:26.067Z,100033.59
2022-10-24T09:58:05.506Z,100051.19
2022-10-24T10:04:17.404Z,100043.59
2022-10-24T10:09:28.174Z,100062.03
2022-10-24T10:20:24.469Z,100038.09
2022-10-24T10:25:31.805Z,100041.47
2022-10-24T10:30:34.252Z,100048.06
2022-10-24T10:36:05.410Z,100051.44
2022-10-24T10:54:38.203Z,100008.53
2022-10-24T11:46:39.134Z,99953.28
2022-10-24T12:11:37.936Z,99921.66
2022-10-24T12:22:35.115Z,99902.53
2022-10-24T12:27:54.108Z,99889.72
2022-10-24T12:45:03.860Z,99869.28
2022-10-24T12:56:28.778Z,99863.38
2022-10-24T14:06:12.885Z,99844.53
2022-10-24T18:20:10.114Z,99948.94
2022-10-24T18:25:23.121Z,99954.88
2022-10-24T19:04:55.870Z,99954.69
2022-10-24T19:35:58.531Z,99970.91
2022-10-24T19:41:29.010Z,99971.78
2022-10-24T19:46:33.948Z,99962.47
2022-10-24T19:51:35.872Z,99947.31
2022-10-24T19:57:46.034Z,99954.88
2022-10-24T20:03:38.379Z,99950.72
2022-10-24T20:08:43.238Z,99955.69
2022-10-24T20:13:45.282Z,99936.38
2022-10-24T20:18:47.572Z,99899.41
2022-10-24T20:23:49.330Z,99907.06
2022-10-24T20:28:53.877Z,99913.09
2022-10-24T20:34:07.958Z,99956.16
2022-10-24T20:39:11.652Z,99944.34
2022-10-24T20:44:14.883Z,99954.47
2022-10-24T20:49:16.985Z,99960.38
2022-10-24T20:54:19.567Z,99967.22
2022-10-24T20:59:23.961Z,99964.72
2022-10-24T21:04:26.046Z,99963.13
2022-10-24T21:09:27.861Z,99958.97
2022-10-24T21:14:29.941Z,99962.31
2022-10-24T21:19:31.841Z,99945.44
2022-10-24T21:24:33.892Z,99958.06
2022-10-24T21:29:35.720Z,99956.38
2022-10-24T21:34:39.838Z,99945.56
2022-10-24T21:39:41.717Z,99930.44
2022-10-24T21:44:43.440Z,99948.09
2022-10-24T21:49:45.398Z,99955.63
2022-10-24T21:54:47.107Z,99939.63
2022-10-24T21:59:49.110Z,99948.16
2022-10-24T22:04:50.856Z,99973.47
2022-10-24T22:09:52.622Z,99976.88
2022-10-24T22:14:54.398Z,99962.50
2022-10-24T22:19:59.533Z,99980.19
2022-10-24T22:25:01.278Z,99958.31
2022-10-24T22:30:05.366Z,99949.06
2022-10-24T22:35:09.770Z,99939.88
2022-10-24T22:40:23.804Z,99955.13
2022-10-24T22:45:25.999Z,99960.19
2022-10-24T22:50:53.384Z,99966.16
2022-10-24T22:56:03.124Z,99984.69
2022-10-24T23:01:23.634Z,100018.44
2022-10-24T23:06:39.800Z,100005.81
2022-10-24T23:11:42.131Z,100004.97
2022-10-24T23:16:53.220Z,100024.34
2022-10-24T23:21:57.917Z,100012.53
2022-10-24T23:27:27.895Z,100012.53
2022-10-24T23:32:35.244Z,100009.19
2022-10-24T23:37:43.070Z,100022.66
2022-10-24T23:42:46.023Z,100010.00
2022-10-24T23:48:19.467Z,100018.44
2022-10-24T23:53:51.466Z,100017.59
2022-10-24T23:58:53.722Z,100022.69
